createdAt,value
2024-01-28T00:01:23.989Z,2.10
2024-01-28T00:04:01.518Z,2.50
2024-01-28T00:06:31.749Z,2.20
2024-01-28T00:09:03.276Z,2.10
2024-01-28T00:11:33.031Z,2.33
2024-01-28T00:14:07.541Z,2.00
2024-01-28T00:16:39.142Z,2.07
2024-01-28T00:19:10.844Z,2.00
2024-01-28T00:21:40.275Z,2.10
2024-01-28T00:24:10.081Z,1.90
2024-01-28T00:26:44.948Z,2.60
2024-01-28T00:29:22.094Z,1.53
2024-01-28T00:31:51.560Z,2.40
2024-01-28T00:34:23.217Z,2.37
2024-01-28T00:36:59.213Z,1.90
2024-01-28T00:39:34.219Z,1.63
2024-01-28T00:42:07.088Z,2.20
2024-01-28T00:44:36.575Z,2.10
2024-01-28T00:47:05.459Z,1.80
2024-01-28T00:49:36.118Z,3.70
2024-01-28T00:52:04.802Z,2.30
2024-01-28T00:54:33.488Z,2.20
2024-01-28T00:57:02.629Z,2.03
2024-01-28T00:59:31.581Z,2.10
2024-01-28T01:01:59.451Z,1.73
2024-01-28T01:04:29.727Z,1.63
2024-01-28T01:07:03.295Z,1.80
2024-01-28T01:09:32.081Z,1.70
2024-01-28T01:12:01.506Z,1.80
2024-01-28T01:14:36.334Z,1.57
2024-01-28T01:17:08.519Z,1.67
2024-01-28T01:19:36.478Z,1.40
2024-01-28T01:22:10.113Z,1.60
2024-01-28T01:24:49.807Z,1.73
2024-01-28T01:27:19.300Z,1.60
2024-01-28T01:29:47.893Z,2.03
2024-01-28T01:32:18.944Z,1.70
2024-01-28T01:34:48.479Z,1.90
2024-01-28T01:37:24.979Z,1.50
2024-01-28T01:39:54.982Z,1.80
2024-01-28T01:42:24.979Z,1.77
2024-01-28T01:44:55.379Z,1.53
2024-01-28T01:47:26.516Z,1.50
2024-01-28T01:49:57.088Z,1.50
2024-01-28T01:52:26.265Z,1.20
2024-01-28T01:54:56.423Z,1.40
2024-01-28T01:57:27.924Z,1.10
2024-01-28T01:59:57.418Z,1.10
2024-01-28T02:02:28.296Z,1.00
2024-01-28T02:04:58.974Z,1.37
2024-01-28T02:07:29.275Z,1.30
2024-01-28T02:10:01.149Z,1.50
2024-01-28T02:12:31.961Z,1.97
2024-01-28T02:15:13.836Z,2.10
2024-01-28T02:17:44.724Z,2.20
2024-01-28T02:20:13.493Z,2.57
2024-01-28T02:22:42.286Z,2.03
2024-01-28T02:25:12.132Z,2.80
2024-01-28T02:27:45.461Z,3.07
2024-01-28T02:30:15.773Z,2.83
2024-01-28T02:32:52.693Z,3.20
2024-01-28T02:35:22.135Z,3.03
2024-01-28T02:37:52.964Z,2.67
2024-01-28T02:40:22.544Z,2.50
2024-01-28T02:42:51.277Z,3.33
2024-01-28T02:45:20.903Z,2.43
2024-01-28T02:47:50.601Z,2.20
2024-01-28T02:50:27.463Z,2.00
2024-01-28T02:52:55.161Z,1.70
2024-01-28T02:55:23.088Z,1.80
2024-01-28T02:57:52.119Z,1.80
2024-01-28T03:00:29.982Z,1.47
2024-01-28T03:03:08.756Z,1.70
2024-01-28T03:05:38.352Z,1.57
2024-01-28T03:08:10.747Z,1.80
2024-01-28T03:10:39.527Z,1.50
2024-01-28T03:13:06.954Z,1.60
2024-01-28T03:15:34.512Z,1.60
2024-01-28T03:18:05.273Z,1.70
2024-01-28T03:20:36.293Z,1.47
2024-01-28T03:23:05.558Z,1.40
2024-01-28T03:25:35.864Z,1.50
2024-01-28T03:28:05.123Z,2.00
2024-01-28T03:30:34.225Z,2.30
2024-01-28T03:33:04.565Z,3.07
2024-01-28T03:35:33.561Z,2.73
2024-01-28T03:38:04.164Z,2.40
2024-01-28T03:40:42.142Z,2.10
2024-01-28T03:43:12.426Z,1.83
2024-01-28T03:45:39.788Z,1.70
2024-01-28T03:48:08.754Z,1.60
2024-01-28T03:50:37.402Z,1.83
2024-01-28T03:53:06.525Z,1.70
2024-01-28T03:55:35.658Z,1.60
2024-01-28T03:58:05.394Z,1.70
2024-01-28T04:00:40.332Z,2.40
2024-01-28T04:03:19.072Z,2.10
2024-01-28T04:05:50.590Z,2.00
2024-01-28T04:08:18.977Z,2.00
2024-01-28T04:10:56.641Z,1.90
2024-01-28T04:13:27.239Z,1.60
2024-01-28T04:16:08.453Z,1.87
2024-01-28T04:18:39.608Z,1.50
2024-01-28T04:21:08.713Z,2.03
2024-01-28T04:23:37.717Z,1.57
2024-01-28T04:26:08.800Z,1.80
2024-01-28T04:28:37.899Z,1.73
2024-01-28T04:31:05.702Z,1.83
2024-01-28T04:33:34.589Z,1.90
2024-01-28T04:36:04.693Z,1.73
2024-01-28T04:38:54.517Z,1.67
2024-01-28T04:41:22.020Z,1.60
2024-01-28T04:43:51.253Z,1.70
2024-01-28T04:46:24.194Z,1.70
2024-01-28T04:48:54.236Z,1.70
2024-01-28T04:51:25.413Z,1.40
2024-01-28T04:53:55.579Z,1.50
2024-01-28T04:56:24.225Z,1.30
2024-01-28T04:58:55.269Z,1.50
2024-01-28T05:01:25.890Z,1.60
2024-01-28T05:03:56.261Z,1.90
2024-01-28T05:06:27.853Z,2.10
2024-01-28T05:08:59.896Z,2.80
2024-01-28T05:11:33.635Z,2.63
2024-01-28T05:14:10.728Z,2.60
2024-01-28T05:16:39.376Z,1.90
2024-01-28T05:19:10.734Z,2.47
2024-01-28T05:21:38.284Z,2.50
2024-01-28T05:24:11.056Z,2.10
2024-01-28T05:26:41.199Z,1.90
2024-01-28T05:29:13.108Z,2.20
2024-01-28T05:31:44.655Z,2.00
2024-01-28T05:34:13.539Z,1.90
2024-01-28T05:36:43.514Z,1.87
2024-01-28T05:39:12.249Z,2.20
2024-01-28T05:41:40.560Z,2.07
2024-01-28T05:44:09.200Z,1.97
2024-01-28T05:46:40.990Z,1.97
2024-01-28T05:49:13.181Z,2.10
2024-01-28T05:51:41.998Z,2.10
2024-01-28T05:54:11.182Z,2.13
2024-01-28T05:56:44.687Z,2.30
2024-01-28T05:59:13.759Z,2.40
2024-01-28T06:01:42.180Z,2.43
2024-01-28T06:04:12.531Z,2.60
2024-01-28T06:06:45.013Z,2.30
2024-01-28T06:09:13.650Z,2.30
2024-01-28T06:11:51.763Z,2.47
2024-01-28T06:14:20.464Z,2.20
2024-01-28T06:16:50.812Z,2.20
2024-01-28T06:19:22.144Z,2.37
2024-01-28T06:21:53.262Z,2.17
2024-01-28T06:24:24.392Z,2.43
2024-01-28T06:26:56.054Z,1.50
2024-01-28T06:29:36.069Z,1.80
2024-01-28T06:32:07.238Z,1.63
2024-01-28T06:34:36.740Z,1.63
2024-01-28T06:37:05.372Z,1.87
2024-01-28T06:39:33.818Z,1.57
2024-01-28T06:42:06.105Z,1.70
2024-01-28T06:44:42.532Z,1.50
2024-01-28T06:47:10.998Z,1.70
2024-01-28T06:49:39.636Z,1.63
2024-01-28T06:52:08.794Z,1.70
2024-01-28T06:54:41.813Z,1.60
2024-01-28T06:57:19.688Z,1.77
2024-01-28T06:59:49.044Z,1.90
2024-01-28T07:02:19.478Z,1.90
2024-01-28T07:04:48.134Z,1.97
2024-01-28T07:07:17.059Z,2.00
2024-01-28T07:09:46.037Z,2.03
2024-01-28T07:12:23.105Z,1.93
2024-01-28T07:14:52.811Z,1.70
2024-01-28T07:17:27.416Z,1.63
2024-01-28T07:19:54.771Z,1.50
2024-01-28T07:22:25.722Z,1.90
2024-01-28T07:24:54.812Z,2.10
2024-01-28T07:27:23.858Z,2.03
2024-01-28T07:29:55.900Z,1.90
2024-01-28T07:32:34.551Z,2.03
2024-01-28T07:35:02.335Z,1.80
2024-01-28T07:37:32.926Z,1.93
2024-01-28T07:40:02.370Z,1.70
2024-01-28T07:42:39.097Z,1.90
2024-01-28T07:45:08.818Z,1.90
2024-01-28T07:47:43.421Z,1.67
2024-01-28T07:50:22.890Z,2.13
2024-01-28T07:52:51.747Z,2.13
2024-01-28T07:55:19.765Z,2.20
2024-01-28T07:57:48.264Z,1.80
2024-01-28T08:00:25.267Z,2.03
2024-01-28T08:02:57.248Z,2.13
2024-01-28T08:05:26.738Z,2.40
2024-01-28T08:07:54.985Z,3.53
2024-01-28T08:10:26.274Z,4.73
2024-01-28T08:12:56.991Z,5.50
2024-01-28T08:15:31.227Z,6.03
2024-01-28T08:18:00.368Z,4.60
2024-01-28T08:20:30.630Z,5.93
2024-01-28T08:23:01.649Z,4.43
2024-01-28T08:25:30.558Z,3.30
2024-01-28T08:28:00.235Z,2.93
2024-01-28T08:30:30.134Z,2.77
2024-01-28T08:33:00.352Z,4.67
2024-01-28T08:35:27.589Z,4.30
2024-01-28T08:38:04.504Z,4.50
2024-01-28T08:40:34.888Z,4.00
2024-01-28T08:43:07.316Z,3.47
2024-01-28T08:45:35.132Z,2.80
2024-01-28T08:48:07.339Z,2.17
2024-01-28T08:50:42.012Z,2.57
2024-01-28T08:53:18.754Z,2.47
2024-01-28T08:55:48.970Z,2.70
2024-01-28T08:58:19.569Z,3.73
2024-01-28T09:00:48.018Z,3.10
2024-01-28T09:03:24.674Z,2.73
2024-01-28T09:08:38.710Z,2.27
2024-01-28T09:11:13.347Z,1.93
2024-01-28T09:13:51.102Z,1.70
2024-01-28T09:16:20.496Z,1.90
2024-01-28T09:18:57.244Z,2.10
2024-01-28T09:21:26.701Z,2.00
2024-01-28T09:23:57.040Z,2.33
2024-01-28T09:26:28.110Z,1.80
2024-01-28T09:28:55.402Z,2.53
2024-01-28T09:31:28.106Z,2.10
2024-01-28T09:33:59.990Z,2.30
2024-01-28T09:36:30.412Z,1.90
2024-01-28T09:39:01.497Z,1.80
2024-01-28T09:41:54.961Z,1.73
2024-01-28T09:44:28.116Z,2.27
2024-01-28T09:47:02.804Z,1.80
2024-01-28T09:49:43.069Z,1.93
2024-01-28T09:52:15.432Z,2.20
2024-01-28T09:54:53.022Z,2.40
2024-01-28T09:57:24.630Z,3.10
2024-01-28T09:59:52.520Z,2.30
2024-01-28T10:02:28.017Z,2.50
2024-01-28T10:05:04.684Z,2.90
2024-01-28T10:07:46.159Z,2.30
2024-01-28T10:10:22.078Z,2.40
2024-01-28T10:12:51.944Z,2.70
2024-01-28T10:15:30.573Z,2.20
2024-01-28T10:18:01.866Z,2.57
2024-01-28T10:20:34.064Z,2.20
2024-01-28T10:23:05.154Z,2.43
2024-01-28T10:25:41.145Z,2.60
2024-01-28T10:28:17.392Z,2.13
2024-01-28T10:30:48.341Z,2.40
2024-01-28T10:33:17.412Z,2.30
2024-01-28T10:35:52.268Z,2.50
2024-01-28T10:38:26.452Z,2.40
2024-01-28T10:40:55.574Z,2.43
2024-01-28T10:43:37.354Z,2.40
2024-01-28T10:46:11.954Z,2.70
2024-01-28T10:48:55.892Z,2.47
2024-01-28T10:51:26.282Z,2.43
2024-01-28T10:53:58.232Z,2.67
2024-01-28T10:56:30.339Z,2.87
2024-01-28T10:59:04.505Z,2.70
2024-01-28T11:01:37.151Z,2.80
2024-01-28T11:04:11.194Z,2.90
2024-01-28T11:06:42.284Z,2.77
2024-01-28T11:09:17.639Z,2.70
2024-01-28T11:11:45.928Z,2.87
2024-01-28T11:14:23.050Z,2.60
2024-01-28T11:16:59.405Z,2.80
2024-01-28T11:19:32.896Z,2.73
2024-01-28T11:22:05.188Z,2.40
2024-01-28T11:24:54.299Z,2.50
2024-01-28T11:27:32.415Z,1.97
2024-01-28T11:30:16.628Z,2.60
2024-01-28T11:32:48.207Z,2.33
2024-01-28T11:35:17.365Z,2.37
2024-01-28T11:37:58.007Z,2.30
2024-01-28T11:40:39.065Z,2.07
2024-01-28T11:43:10.191Z,2.10
2024-01-28T11:45:40.047Z,2.67
2024-01-28T11:48:19.809Z,3.97
2024-01-28T11:50:50.378Z,2.60
2024-01-28T11:53:19.012Z,2.03
2024-01-28T11:55:48.904Z,2.07
2024-01-28T11:58:20.163Z,2.10
2024-01-28T12:00:48.840Z,2.10
2024-01-28T12:03:19.955Z,2.23
2024-01-28T12:08:39.529Z,2.10
2024-01-28T12:11:09.669Z,2.43
2024-01-28T12:13:39.092Z,2.20
2024-01-28T12:16:07.631Z,2.50
2024-01-28T12:18:43.834Z,2.10
2024-01-28T12:21:32.701Z,2.17
2024-01-28T12:24:03.465Z,2.00
2024-01-28T12:26:36.529Z,2.10
2024-01-28T12:29:13.567Z,2.27
2024-01-28T12:31:42.038Z,2.50
2024-01-28T12:34:21.355Z,2.50
2024-01-28T12:36:49.817Z,2.17
2024-01-28T12:39:17.760Z,2.20
2024-01-28T12:41:46.690Z,2.63
2024-01-28T12:44:15.539Z,2.23
2024-01-28T12:46:47.598Z,2.40
2024-01-28T12:49:16.637Z,2.20
2024-01-28T12:51:48.020Z,2.57
2024-01-28T12:54:22.902Z,2.13
2024-01-28T12:56:53.865Z,2.90
2024-01-28T12:59:21.449Z,3.27
2024-01-28T13:01:50.807Z,2.53
2024-01-28T13:04:21.957Z,2.47
2024-01-28T13:06:55.794Z,2.20
2024-01-28T13:09:24.955Z,1.97
2024-01-28T13:11:58.150Z,1.93
2024-01-28T13:14:28.893Z,2.10
2024-01-28T13:16:59.042Z,2.20
2024-01-28T13:19:30.884Z,2.20
2024-01-28T13:22:01.063Z,2.43
2024-01-28T13:24:29.696Z,2.30
2024-01-28T13:26:58.466Z,1.97
2024-01-28T13:29:29.861Z,2.10
2024-01-28T13:31:57.452Z,2.20
2024-01-28T13:34:25.527Z,2.30
2024-01-28T13:36:54.495Z,2.13
2024-01-28T13:39:22.134Z,2.10
2024-01-28T13:41:50.971Z,1.90
2024-01-28T13:44:20.101Z,2.07
2024-01-28T13:46:49.447Z,2.30
2024-01-28T13:49:19.622Z,2.17
2024-01-28T13:51:48.379Z,2.40
2024-01-28T13:54:16.142Z,2.10
2024-01-28T13:56:46.822Z,1.97
2024-01-28T13:59:17.946Z,2.43
2024-01-28T14:01:45.360Z,2.53
2024-01-28T14:04:19.072Z,2.10
2024-01-28T14:09:45.112Z,2.57
2024-01-28T14:12:18.925Z,2.20
2024-01-28T14:14:49.389Z,2.20
2024-01-28T14:17:20.919Z,2.73
2024-01-28T14:19:50.645Z,2.20
2024-01-28T14:22:27.037Z,2.63
2024-01-28T14:24:57.884Z,2.40
2024-01-28T14:27:30.890Z,3.00
2024-01-28T14:29:59.133Z,2.10
2024-01-28T14:32:31.170Z,2.07
2024-01-28T14:35:01.787Z,1.90
2024-01-28T14:37:31.346Z,2.60
2024-01-28T14:40:07.369Z,2.27
2024-01-28T14:42:36.454Z,2.60
2024-01-28T14:45:12.516Z,2.50
2024-01-28T14:47:43.730Z,2.23
2024-01-28T14:50:14.182Z,2.37
2024-01-28T14:52:50.032Z,2.30
2024-01-28T14:55:21.516Z,2.70
2024-01-28T14:57:49.007Z,2.40
2024-01-28T15:00:20.388Z,2.50
2024-01-28T15:02:50.136Z,2.60
2024-01-28T15:05:21.227Z,2.90
2024-01-28T15:07:48.764Z,2.47
2024-01-28T15:10:22.444Z,2.00
2024-01-28T15:12:54.063Z,2.43
2024-01-28T15:15:25.736Z,2.57
2024-01-28T15:17:55.727Z,2.73
2024-01-28T15:20:27.108Z,2.23
2024-01-28T15:22:55.584Z,2.50
2024-01-28T15:25:33.292Z,2.20
2024-01-28T15:28:15.300Z,2.37
2024-01-28T15:30:50.847Z,2.57
2024-01-28T15:33:29.799Z,2.90
2024-01-28T15:35:59.313Z,2.90
2024-01-28T15:38:28.664Z,2.60
2024-01-28T15:41:04.260Z,2.30
2024-01-28T15:43:31.731Z,2.37
2024-01-28T15:46:06.054Z,2.40
2024-01-28T15:48:43.750Z,2.10
2024-01-28T15:51:20.626Z,2.30
2024-01-28T15:53:48.594Z,3.77
2024-01-28T15:56:21.652Z,4.03
2024-01-28T15:58:51.782Z,5.87
2024-01-28T16:01:30.485Z,6.30
2024-01-28T16:04:10.942Z,4.63
2024-01-28T16:06:38.637Z,4.20
2024-01-28T16:09:17.359Z,4.17
2024-01-28T16:11:47.276Z,3.97
2024-01-28T16:14:17.840Z,4.03
2024-01-28T16:16:45.130Z,5.13
2024-01-28T16:19:23.755Z,5.47
2024-01-28T16:21:51.737Z,5.80
2024-01-28T16:24:21.594Z,4.93
2024-01-28T16:26:52.671Z,4.50
2024-01-28T16:29:19.821Z,3.43
2024-01-28T16:31:50.081Z,3.20
2024-01-28T16:34:20.359Z,3.93
2024-01-28T16:36:48.793Z,3.93
2024-01-28T16:39:19.068Z,3.80
2024-01-28T16:41:48.660Z,3.27
2024-01-28T16:44:17.653Z,3.40
2024-01-28T16:46:45.891Z,3.37
2024-01-28T16:49:14.455Z,3.00
2024-01-28T16:51:44.396Z,3.30
2024-01-28T16:54:12.957Z,5.67
2024-01-28T16:56:41.754Z,6.03
2024-01-28T16:59:13.534Z,4.50
2024-01-28T17:01:42.197Z,4.57
2024-01-28T17:04:19.158Z,4.97
2024-01-28T17:06:49.342Z,4.43
2024-01-28T17:09:19.546Z,4.00
2024-01-28T17:11:57.100Z,4.47
2024-01-28T17:14:25.738Z,4.60
2024-01-28T17:16:56.220Z,4.03
2024-01-28T17:19:27.976Z,4.00
2024-01-28T17:22:02.368Z,3.87
2024-01-28T17:24:45.856Z,4.20
2024-01-28T17:27:13.672Z,4.17
2024-01-28T17:29:44.819Z,3.80
2024-01-28T17:32:20.027Z,4.90
2024-01-28T17:34:52.614Z,4.33
2024-01-28T17:37:23.747Z,4.17
2024-01-28T17:39:58.340Z,4.50
2024-01-28T17:42:43.491Z,5.80
2024-01-28T17:45:19.894Z,4.60
2024-01-28T17:47:53.075Z,4.77
2024-01-28T17:50:33.976Z,4.23
2024-01-28T17:53:11.824Z,4.47
2024-01-28T17:55:43.828Z,4.63
2024-01-28T17:58:35.322Z,4.73
2024-01-28T18:01:17.510Z,5.40
2024-01-28T18:03:47.701Z,5.13
2024-01-28T18:06:24.790Z,4.77
2024-01-28T18:08:54.356Z,7.37
2024-01-28T18:11:26.994Z,8.90
2024-01-28T18:13:54.966Z,7.53
2024-01-28T18:16:27.733Z,6.13
2024-01-28T18:18:58.196Z,5.57
2024-01-28T18:21:38.813Z,5.13
2024-01-28T18:24:08.570Z,5.80
2024-01-28T18:26:37.591Z,5.57
2024-01-28T18:29:08.934Z,5.03
2024-01-28T18:31:40.167Z,4.53
2024-01-28T18:34:11.185Z,4.00
2024-01-28T18:36:41.466Z,4.97
2024-01-28T18:39:16.805Z,3.83
2024-01-28T18:41:47.949Z,4.20
2024-01-28T18:44:25.470Z,4.80
2024-01-28T18:46:59.662Z,4.60
2024-01-28T18:49:39.100Z,4.80
2024-01-28T18:52:30.542Z,5.00
2024-01-28T18:55:05.294Z,5.57
2024-01-28T18:57:56.896Z,4.30
2024-01-28T19:00:27.550Z,3.33
2024-01-28T19:03:07.706Z,3.30
2024-01-28T19:05:43.537Z,3.37
2024-01-28T19:08:11.830Z,4.27
2024-01-28T19:10:40.258Z,4.10
2024-01-28T19:13:12.544Z,3.63
2024-01-28T19:15:47.147Z,3.40
2024-01-28T19:18:19.934Z,3.33
2024-01-28T19:20:52.616Z,3.00
2024-01-28T19:23:26.336Z,3.57
2024-01-28T19:25:57.900Z,3.10
2024-01-28T19:28:32.677Z,2.70
2024-01-28T19:31:09.297Z,3.30
2024-01-28T19:33:40.899Z,3.83
2024-01-28T19:36:10.162Z,3.23
2024-01-28T19:38:41.424Z,3.73
2024-01-28T19:41:13.593Z,3.50
2024-01-28T19:43:49.690Z,3.13
2024-01-28T19:46:23.705Z,3.07
2024-01-28T19:48:51.125Z,3.40
2024-01-28T19:51:20.390Z,3.47
2024-01-28T19:53:48.824Z,4.07
2024-01-28T19:56:21.524Z,3.10
2024-01-28T19:58:51.809Z,3.23
2024-01-28T20:01:20.799Z,3.40
2024-01-28T20:03:48.605Z,3.27
2024-01-28T20:06:23.396Z,3.13
2024-01-28T20:09:01.200Z,2.67
2024-01-28T20:11:29.789Z,3.37
2024-01-28T20:13:58.291Z,3.00
2024-01-28T20:16:26.882Z,3.30
2024-01-28T20:18:56.015Z,2.97
2024-01-28T20:21:27.101Z,3.33
2024-01-28T20:23:56.985Z,3.83
2024-01-28T20:26:26.948Z,3.07
2024-01-28T20:28:57.027Z,3.37
2024-01-28T20:31:28.045Z,3.13
2024-01-28T20:33:57.797Z,3.03
2024-01-28T20:36:27.108Z,3.30
2024-01-28T20:38:59.822Z,3.30
2024-01-28T20:41:29.422Z,3.00
2024-01-28T20:44:06.377Z,3.70
2024-01-28T20:46:37.124Z,4.20
2024-01-28T20:49:08.204Z,3.70
2024-01-28T20:51:38.450Z,3.97
2024-01-28T20:54:12.411Z,4.73
2024-01-28T20:56:43.658Z,4.73
2024-01-28T20:59:11.357Z,4.20
2024-01-28T21:01:39.910Z,4.00
2024-01-28T21:04:07.217Z,3.83
2024-01-28T21:06:38.170Z,5.10
2024-01-28T21:09:07.462Z,5.00
2024-01-28T21:11:34.884Z,5.03
2024-01-28T21:14:05.415Z,5.10
2024-01-28T21:16:32.643Z,4.40
2024-01-28T21:19:05.207Z,4.30
2024-01-28T21:21:35.262Z,4.07
2024-01-28T21:24:06.322Z,4.97
2024-01-28T21:26:35.085Z,4.70
2024-01-28T21:29:07.075Z,4.80
2024-01-28T21:31:37.941Z,4.67
2024-01-28T21:34:07.711Z,3.73
2024-01-28T21:36:46.578Z,3.77
2024-01-28T21:39:18.699Z,3.27
2024-01-28T21:41:49.093Z,4.20
2024-01-28T21:44:20.919Z,3.00
2024-01-28T21:46:51.805Z,4.90
2024-01-28T21:49:20.532Z,4.93
2024-01-28T21:51:48.977Z,4.20
2024-01-28T21:54:16.892Z,3.47
2024-01-28T21:56:50.912Z,3.40
2024-01-28T21:59:18.338Z,4.80
2024-01-28T22:01:48.684Z,5.40
2024-01-28T22:04:18.544Z,4.63
2024-01-28T22:06:50.820Z,4.57
2024-01-28T22:09:20.558Z,4.47
2024-01-28T22:11:49.072Z,5.23
2024-01-28T22:14:19.057Z,3.60
2024-01-28T22:16:47.739Z,3.97
2024-01-28T22:19:19.635Z,4.27
2024-01-28T22:21:48.286Z,5.43
2024-01-28T22:24:18.803Z,4.67
2024-01-28T22:26:51.741Z,5.20
2024-01-28T22:29:21.420Z,4.63
2024-01-28T22:31:51.400Z,4.60
2024-01-28T22:34:27.974Z,5.07
2024-01-28T22:36:56.702Z,3.50
2024-01-28T22:39:35.472Z,3.43
2024-01-28T22:42:04.878Z,3.40
2024-01-28T22:44:38.572Z,3.93
2024-01-28T22:47:09.963Z,3.67
2024-01-28T22:49:37.464Z,3.80
2024-01-28T22:52:05.363Z,4.50
2024-01-28T22:54:38.369Z,4.50
2024-01-28T22:57:07.346Z,4.97
2024-01-28T22:59:39.703Z,4.70
2024-01-28T23:02:07.958Z,3.90
2024-01-28T23:04:39.218Z,3.67
2024-01-28T23:07:12.822Z,3.30
2024-01-28T23:09:41.965Z,2.87
2024-01-28T23:12:10.717Z,3.10
2024-01-28T23:14:47.456Z,3.27
2024-01-28T23:17:18.566Z,3.97
2024-01-28T23:19:49.036Z,3.80
2024-01-28T23:22:23.200Z,3.20
2024-01-28T23:24:56.214Z,3.50
2024-01-28T23:27:25.370Z,3.23
2024-01-28T23:29:55.854Z,3.10
2024-01-28T23:32:32.617Z,3.50
2024-01-28T23:35:01.792Z,3.50
2024-01-28T23:37:32.071Z,3.37
2024-01-28T23:40:01.027Z,3.87
2024-01-28T23:42:31.323Z,2.83
2024-01-28T23:45:01.907Z,3.13
2024-01-28T23:47:32.552Z,3.30
2024-01-28T23:50:01.422Z,3.30
2024-01-28T23:52:35.011Z,2.90
2024-01-28T23:55:07.998Z,2.93
2024-01-28T23:57:38.618Z,3.03
